sensor_id;sensor_type;location;lat;lon;timestamp;P1;durP1;ratioP1;P2;durP2;ratioP2
253;SDS011;590;48.772;8.846;2023-06-14T00:02:18;6.03;;;5.63;;
253;SDS011;590;48.772;8.846;2023-06-14T00:04:46;5.50;;;5.20;;
253;SDS011;590;48.772;8.846;2023-06-14T00:07:17;7.10;;;6.70;;
253;SDS011;590;48.772;8.846;2023-06-14T00:09:45;5.80;;;5.50;;
253;SDS011;590;48.772;8.846;2023-06-14T00:12:13;5.90;;;5.60;;
253;SDS011;590;48.772;8.846;2023-06-14T00:14:41;6.57;;;6.17;;
253;SDS011;590;48.772;8.846;2023-06-14T00:17:09;7.23;;;6.13;;
253;SDS011;590;48.772;8.846;2023-06-14T00:19:39;6.40;;;6.00;;
253;SDS011;590;48.772;8.846;2023-06-14T00:22:07;6.33;;;5.97;;
253;SDS011;590;48.772;8.846;2023-06-14T00:24:36;6.10;;;5.80;;
253;SDS011;590;48.772;8.846;2023-06-14T00:27:04;6.63;;;6.10;;
253;SDS011;590;48.772;8.846;2023-06-14T00:29:33;7.20;;;6.80;;
253;SDS011;590;48.772;8.846;2023-06-14T00:32:01;6.83;;;6.43;;
253;SDS011;590;48.772;8.846;2023-06-14T00:34:29;6.87;;;6.47;;
253;SDS011;590;48.772;8.846;2023-06-14T00:36:59;7.90;;;7.50;;
253;SDS011;590;48.772;8.846;2023-06-14T00:39:27;6.10;;;5.80;;
253;SDS011;590;48.772;8.846;2023-06-14T00:41:55;6.10;;;5.80;;
253;SDS011;590;48.772;8.846;2023-06-14T00:44:24;6.40;;;6.03;;
253;SDS011;590;48.772;8.846;2023-06-14T00:46:52;5.57;;;5.27;;
253;SDS011;590;48.772;8.846;2023-06-14T00:49:20;7.03;;;6.63;;
253;SDS011;590;48.772;8.846;2023-06-14T00:51:48;5.90;;;5.60;;
253;SDS011;590;48.772;8.846;2023-06-14T00:54:19;6.57;;;6.17;;
253;SDS011;590;48.772;8.846;2023-06-14T00:56:47;6.50;;;6.10;;
253;SDS011;590;48.772;8.846;2023-06-14T00:59:15;6.40;;;5.60;;
253;SDS011;590;48.772;8.846;2023-06-14T01:01:43;6.10;;;5.80;;
253;SDS011;590;48.772;8.846;2023-06-14T01:04:11;6.90;;;6.50;;
253;SDS011;590;48.772;8.846;2023-06-14T01:06:40;5.83;;;5.53;;
253;SDS011;590;48.772;8.846;2023-06-14T01:09:14;5.97;;;5.67;;
253;SDS011;590;48.772;8.846;2023-06-14T01:11:50;5.93;;;5.63;;
253;SDS011;590;48.772;8.846;2023-06-14T01:14:24;6.50;;;6.10;;
253;SDS011;590;48.772;8.846;2023-06-14T01:16:54;6.60;;;6.20;;
253;SDS011;590;48.772;8.846;2023-06-14T01:19:23;6.10;;;5.80;;
253;SDS011;590;48.772;8.846;2023-06-14T01:21:55;6.00;;;5.70;;
253;SDS011;590;48.772;8.846;2023-06-14T01:24:24;5.50;;;5.20;;
253;SDS011;590;48.772;8.846;2023-06-14T01:26:58;5.43;;;5.13;;
253;SDS011;590;48.772;8.846;2023-06-14T01:29:27;6.67;;;6.27;;
253;SDS011;590;48.772;8.846;2023-06-14T01:31:58;5.40;;;5.10;;
253;SDS011;590;48.772;8.846;2023-06-14T01:34:28;6.00;;;5.70;;
253;SDS011;590;48.772;8.846;2023-06-14T01:36:56;6.03;;;5.73;;
253;SDS011;590;48.772;8.846;2023-06-14T01:39:26;6.60;;;6.20;;
253;SDS011;590;48.772;8.846;2023-06-14T01:41:55;6.03;;;5.73;;
253;SDS011;590;48.772;8.846;2023-06-14T01:44:24;6.40;;;6.03;;
253;SDS011;590;48.772;8.846;2023-06-14T01:46:54;6.10;;;5.80;;
253;SDS011;590;48.772;8.846;2023-06-14T01:49:22;7.10;;;6.70;;
253;SDS011;590;48.772;8.846;2023-06-14T01:51:50;6.70;;;6.30;;
253;SDS011;590;48.772;8.846;2023-06-14T01:54:18;7.20;;;6.80;;
253;SDS011;590;48.772;8.846;2023-06-14T01:56:47;6.57;;;5.37;;
253;SDS011;590;48.772;8.846;2023-06-14T01:59:15;7.30;;;6.90;;
253;SDS011;590;48.772;8.846;2023-06-14T02:01:43;5.70;;;5.40;;
253;SDS011;590;48.772;8.846;2023-06-14T02:04:12;6.43;;;6.03;;
253;SDS011;590;48.772;8.846;2023-06-14T02:06:40;6.40;;;5.77;;
253;SDS011;590;48.772;8.846;2023-06-14T02:09:08;6.90;;;6.10;;
253;SDS011;590;48.772;8.846;2023-06-14T02:11:36;5.70;;;5.40;;
253;SDS011;590;48.772;8.846;2023-06-14T02:14:05;6.60;;;6.20;;
253;SDS011;590;48.772;8.846;2023-06-14T02:16:37;6.73;;;6.33;;
253;SDS011;590;48.772;8.846;2023-06-14T02:19:05;6.27;;;5.93;;
253;SDS011;590;48.772;8.846;2023-06-14T02:21:33;6.10;;;5.80;;
253;SDS011;590;48.772;8.846;2023-06-14T02:24:01;7.00;;;6.60;;
253;SDS011;590;48.772;8.846;2023-06-14T02:26:29;6.07;;;5.77;;
253;SDS011;590;48.772;8.846;2023-06-14T02:28:58;7.00;;;6.60;;
253;SDS011;590;48.772;8.846;2023-06-14T02:31:27;5.47;;;5.17;;
253;SDS011;590;48.772;8.846;2023-06-14T02:33:56;6.13;;;5.83;;
253;SDS011;590;48.772;8.846;2023-06-14T02:36:24;5.50;;;5.20;;
253;SDS011;590;48.772;8.846;2023-06-14T02:38:52;6.00;;;5.70;;
253;SDS011;590;48.772;8.846;2023-06-14T02:41:21;6.33;;;5.97;;
253;SDS011;590;48.772;8.846;2023-06-14T02:43:49;7.00;;;6.63;;
253;SDS011;590;48.772;8.846;2023-06-14T02:46:17;6.70;;;6.30;;
253;SDS011;590;48.772;8.846;2023-06-14T02:48:46;6.10;;;5.80;;
253;SDS011;590;48.772;8.846;2023-06-14T02:51:14;6.67;;;6.27;;
253;SDS011;590;48.772;8.846;2023-06-14T02:53:42;6.87;;;6.47;;
253;SDS011;590;48.772;8.846;2023-06-14T02:56:11;5.57;;;5.27;;
253;SDS011;590;48.772;8.846;2023-06-14T02:58:39;6.00;;;5.70;;
253;SDS011;590;48.772;8.846;2023-06-14T03:01:07;6.63;;;6.23;;
253;SDS011;590;48.772;8.846;2023-06-14T03:03:39;5.73;;;5.43;;
253;SDS011;590;48.772;8.846;2023-06-14T03:06:08;6.40;;;6.00;;
253;SDS011;590;48.772;8.846;2023-06-14T03:08:40;5.87;;;5.57;;
253;SDS011;590;48.772;8.846;2023-06-14T03:11:08;6.60;;;6.20;;
253;SDS011;590;48.772;8.846;2023-06-14T03:13:36;6.10;;;5.80;;
253;SDS011;590;48.772;8.846;2023-06-14T03:16:05;6.57;;;6.17;;
253;SDS011;590;48.772;8.846;2023-06-14T03:18:33;6.43;;;6.03;;
253;SDS011;590;48.772;8.846;2023-06-14T03:21:02;5.60;;;5.30;;
253;SDS011;590;48.772;8.846;2023-06-14T03:23:32;6.03;;;5.73;;
253;SDS011;590;48.772;8.846;2023-06-14T03:26:00;6.70;;;6.30;;
253;SDS011;590;48.772;8.846;2023-06-14T03:28:28;6.33;;;5.97;;
253;SDS011;590;48.772;8.846;2023-06-14T03:30:56;6.70;;;6.30;;
253;SDS011;590;48.772;8.846;2023-06-14T03:33:24;6.83;;;6.23;;
253;SDS011;590;48.772;8.846;2023-06-14T03:35:52;6.97;;;6.57;;
253;SDS011;590;48.772;8.846;2023-06-14T03:38:22;6.80;;;6.40;;
253;SDS011;590;48.772;8.846;2023-06-14T03:40:51;6.37;;;6.00;;
253;SDS011;590;48.772;8.846;2023-06-14T03:43:19;6.23;;;5.90;;
253;SDS011;590;48.772;8.846;2023-06-14T03:45:47;6.10;;;5.80;;
253;SDS011;590;48.772;8.846;2023-06-14T03:48:16;6.33;;;5.97;;
253;SDS011;590;48.772;8.846;2023-06-14T03:50:44;7.10;;;6.70;;
253;SDS011;590;48.772;8.846;2023-06-14T03:53:12;6.87;;;6.47;;
253;SDS011;590;48.772;8.846;2023-06-14T03:55:40;6.07;;;5.77;;
253;SDS011;590;48.772;8.846;2023-06-14T03:58:12;7.00;;;6.60;;
253;SDS011;590;48.772;8.846;2023-06-14T04:00:41;6.87;;;6.47;;
253;SDS011;590;48.772;8.846;2023-06-14T04:03:09;6.97;;;6.57;;
253;SDS011;590;48.772;8.846;2023-06-14T04:05:39;6.10;;;5.80;;
253;SDS011;590;48.772;8.846;2023-06-14T04:08:08;7.10;;;6.70;;
253;SDS011;590;48.772;8.846;2023-06-14T04:10:37;6.60;;;6.20;;
253;SDS011;590;48.772;8.846;2023-06-14T04:13:04;6.13;;;5.83;;
253;SDS011;590;48.772;8.846;2023-06-14T04:15:34;6.67;;;6.27;;
253;SDS011;590;48.772;8.846;2023-06-14T04:18:03;6.90;;;6.50;;
253;SDS011;590;48.772;8.846;2023-06-14T04:20:31;5.73;;;5.43;;
253;SDS011;590;48.772;8.846;2023-06-14T04:23:10;5.50;;;5.20;;
253;SDS011;590;48.772;8.846;2023-06-14T04:25:39;5.73;;;5.43;;
253;SDS011;590;48.772;8.846;2023-06-14T04:28:26;5.10;;;4.80;;
253;SDS011;590;48.772;8.846;2023-06-14T04:30:56;5.50;;;5.20;;
253;SDS011;590;48.772;8.846;2023-06-14T04:33:28;5.60;;;5.30;;
253;SDS011;590;48.772;8.846;2023-06-14T04:35:56;5.63;;;5.20;;
253;SDS011;590;48.772;8.846;2023-06-14T04:38:24;5.87;;;5.60;;
253;SDS011;590;48.772;8.846;2023-06-14T04:40:54;5.33;;;5.03;;
253;SDS011;590;48.772;8.846;2023-06-14T04:43:23;5.73;;;5.27;;
253;SDS011;590;48.772;8.846;2023-06-14T04:45:52;6.10;;;5.80;;
253;SDS011;590;48.772;8.846;2023-06-14T04:48:22;5.97;;;5.67;;
253;SDS011;590;48.772;8.846;2023-06-14T04:50:51;5.33;;;5.03;;
253;SDS011;590;48.772;8.846;2023-06-14T04:53:19;5.60;;;5.30;;
253;SDS011;590;48.772;8.846;2023-06-14T04:55:49;5.00;;;4.70;;
253;SDS011;590;48.772;8.846;2023-06-14T04:58:17;5.57;;;5.27;;
253;SDS011;590;48.772;8.846;2023-06-14T05:00:45;6.47;;;5.70;;
253;SDS011;590;48.772;8.846;2023-06-14T05:03:13;5.90;;;5.27;;
253;SDS011;590;48.772;8.846;2023-06-14T05:05:43;4.97;;;4.67;;
253;SDS011;590;48.772;8.846;2023-06-14T05:08:11;5.03;;;4.73;;
253;SDS011;590;48.772;8.846;2023-06-14T05:10:39;5.73;;;5.43;;
253;SDS011;590;48.772;8.846;2023-06-14T05:13:07;5.80;;;5.50;;
253;SDS011;590;48.772;8.846;2023-06-14T05:15:36;5.50;;;5.20;;
253;SDS011;590;48.772;8.846;2023-06-14T05:18:05;5.87;;;5.57;;
253;SDS011;590;48.772;8.846;2023-06-14T05:20:36;6.43;;;6.07;;
253;SDS011;590;48.772;8.846;2023-06-14T05:23:05;6.47;;;6.07;;
253;SDS011;590;48.772;8.846;2023-06-14T05:25:33;7.17;;;6.77;;
253;SDS011;590;48.772;8.846;2023-06-14T05:28:02;7.00;;;6.60;;
253;SDS011;590;48.772;8.846;2023-06-14T05:30:30;6.63;;;6.23;;
253;SDS011;590;48.772;8.846;2023-06-14T05:32:59;6.47;;;6.07;;
253;SDS011;590;48.772;8.846;2023-06-14T05:35:27;6.97;;;6.57;;
253;SDS011;590;48.772;8.846;2023-06-14T05:37:56;6.23;;;5.90;;
253;SDS011;590;48.772;8.846;2023-06-14T05:40:25;7.70;;;7.30;;
253;SDS011;590;48.772;8.846;2023-06-14T05:42:53;6.50;;;6.10;;
253;SDS011;590;48.772;8.846;2023-06-14T05:45:21;6.57;;;6.17;;
253;SDS011;590;48.772;8.846;2023-06-14T05:47:49;6.20;;;5.87;;
253;SDS011;590;48.772;8.846;2023-06-14T05:50:17;5.10;;;4.80;;
253;SDS011;590;48.772;8.846;2023-06-14T05:52:45;5.87;;;5.57;;
253;SDS011;590;48.772;8.846;2023-06-14T05:55:15;5.50;;;5.20;;
253;SDS011;590;48.772;8.846;2023-06-14T05:57:45;6.37;;;5.47;;
253;SDS011;590;48.772;8.846;2023-06-14T06:00:14;5.30;;;5.00;;
253;SDS011;590;48.772;8.846;2023-06-14T06:02:44;5.60;;;5.30;;
253;SDS011;590;48.772;8.846;2023-06-14T06:05:14;5.40;;;5.10;;
253;SDS011;590;48.772;8.846;2023-06-14T06:07:43;5.90;;;5.60;;
253;SDS011;590;48.772;8.846;2023-06-14T06:10:12;7.73;;;5.10;;
253;SDS011;590;48.772;8.846;2023-06-14T06:12:40;5.47;;;5.20;;
253;SDS011;590;48.772;8.846;2023-06-14T06:15:10;5.90;;;4.93;;
253;SDS011;590;48.772;8.846;2023-06-14T06:17:39;5.33;;;5.03;;
253;SDS011;590;48.772;8.846;2023-06-14T06:20:21;5.67;;;5.37;;
253;SDS011;590;48.772;8.846;2023-06-14T06:22:55;5.10;;;4.80;;
253;SDS011;590;48.772;8.846;2023-06-14T06:25:23;6.07;;;5.77;;
253;SDS011;590;48.772;8.846;2023-06-14T06:27:52;5.00;;;4.70;;
253;SDS011;590;48.772;8.846;2023-06-14T06:30:21;5.53;;;5.20;;
253;SDS011;590;48.772;8.846;2023-06-14T06:32:50;5.37;;;5.07;;
253;SDS011;590;48.772;8.846;2023-06-14T06:35:18;5.90;;;5.30;;
253;SDS011;590;48.772;8.846;2023-06-14T06:37:46;5.70;;;5.40;;
253;SDS011;590;48.772;8.846;2023-06-14T06:40:14;5.17;;;4.87;;
253;SDS011;590;48.772;8.846;2023-06-14T06:42:42;6.10;;;5.80;;
253;SDS011;590;48.772;8.846;2023-06-14T06:45:10;5.20;;;4.90;;
253;SDS011;590;48.772;8.846;2023-06-14T06:47:40;5.70;;;5.40;;
253;SDS011;590;48.772;8.846;2023-06-14T06:50:09;5.70;;;5.40;;
253;SDS011;590;48.772;8.846;2023-06-14T06:52:37;5.70;;;5.40;;
253;SDS011;590;48.772;8.846;2023-06-14T06:55:05;4.90;;;4.60;;
253;SDS011;590;48.772;8.846;2023-06-14T06:57:35;5.87;;;5.40;;
253;SDS011;590;48.772;8.846;2023-06-14T07:00:03;5.90;;;5.60;;
253;SDS011;590;48.772;8.846;2023-06-14T07:02:34;5.57;;;5.27;;
253;SDS011;590;48.772;8.846;2023-06-14T07:05:04;5.50;;;5.20;;
253;SDS011;590;48.772;8.846;2023-06-14T07:07:32;5.53;;;4.83;;
253;SDS011;590;48.772;8.846;2023-06-14T07:10:00;5.63;;;5.33;;
253;SDS011;590;48.772;8.846;2023-06-14T07:12:30;6.70;;;5.20;;
253;SDS011;590;48.772;8.846;2023-06-14T07:15:02;5.17;;;4.87;;
253;SDS011;590;48.772;8.846;2023-06-14T07:17:31;5.00;;;4.70;;
253;SDS011;590;48.772;8.846;2023-06-14T07:20:00;7.20;;;6.10;;
253;SDS011;590;48.772;8.846;2023-06-14T07:22:39;5.67;;;5.37;;
253;SDS011;590;48.772;8.846;2023-06-14T07:25:08;6.70;;;5.77;;
253;SDS011;590;48.772;8.846;2023-06-14T07:27:40;5.57;;;5.27;;
253;SDS011;590;48.772;8.846;2023-06-14T07:30:08;5.33;;;5.03;;
253;SDS011;590;48.772;8.846;2023-06-14T07:32:37;5.43;;;5.13;;
253;SDS011;590;48.772;8.846;2023-06-14T07:35:06;6.10;;;5.80;;
253;SDS011;590;48.772;8.846;2023-06-14T07:37:35;5.73;;;5.43;;
253;SDS011;590;48.772;8.846;2023-06-14T07:40:05;6.10;;;5.40;;
253;SDS011;590;48.772;8.846;2023-06-14T07:42:34;5.83;;;5.53;;
253;SDS011;590;48.772;8.846;2023-06-14T07:45:03;7.47;;;5.73;;
253;SDS011;590;48.772;8.846;2023-06-14T07:47:32;5.60;;;5.30;;
253;SDS011;590;48.772;8.846;2023-06-14T07:50:01;5.53;;;5.23;;
253;SDS011;590;48.772;8.846;2023-06-14T07:52:29;8.20;;;5.50;;
253;SDS011;590;48.772;8.846;2023-06-14T07:54:57;6.17;;;5.87;;
253;SDS011;590;48.772;8.846;2023-06-14T07:57:26;6.70;;;6.30;;
253;SDS011;590;48.772;8.846;2023-06-14T07:59:54;7.20;;;6.00;;
253;SDS011;590;48.772;8.846;2023-06-14T08:02:23;7.27;;;6.00;;
253;SDS011;590;48.772;8.846;2023-06-14T08:04:51;6.10;;;5.80;;
253;SDS011;590;48.772;8.846;2023-06-14T08:07:20;7.37;;;6.97;;
253;SDS011;590;48.772;8.846;2023-06-14T08:09:48;7.00;;;5.60;;
253;SDS011;590;48.772;8.846;2023-06-14T08:12:16;5.63;;;5.33;;
253;SDS011;590;48.772;8.846;2023-06-14T08:14:45;6.33;;;5.97;;
253;SDS011;590;48.772;8.846;2023-06-14T08:17:26;5.67;;;5.10;;
253;SDS011;590;48.772;8.846;2023-06-14T08:19:54;5.60;;;5.30;;
253;SDS011;590;48.772;8.846;2023-06-14T08:22:23;6.03;;;5.30;;
253;SDS011;590;48.772;8.846;2023-06-14T08:24:52;7.40;;;6.20;;
253;SDS011;590;48.772;8.846;2023-06-14T08:27:20;8.43;;;5.80;;
253;SDS011;590;48.772;8.846;2023-06-14T08:29:50;6.00;;;5.40;;
253;SDS011;590;48.772;8.846;2023-06-14T08:32:18;6.53;;;6.13;;
253;SDS011;590;48.772;8.846;2023-06-14T08:34:46;7.13;;;6.50;;
253;SDS011;590;48.772;8.846;2023-06-14T08:37:29;6.87;;;6.47;;
253;SDS011;590;48.772;8.846;2023-06-14T08:39:57;6.53;;;6.13;;
253;SDS011;590;48.772;8.846;2023-06-14T08:42:25;6.20;;;5.90;;
253;SDS011;590;48.772;8.846;2023-06-14T08:45:05;6.30;;;5.97;;
253;SDS011;590;48.772;8.846;2023-06-14T08:47:33;7.40;;;6.93;;
253;SDS011;590;48.772;8.846;2023-06-14T08:50:07;7.27;;;6.70;;
253;SDS011;590;48.772;8.846;2023-06-14T08:52:54;5.97;;;5.67;;
253;SDS011;590;48.772;8.846;2023-06-14T08:55:23;5.80;;;5.50;;
253;SDS011;590;48.772;8.846;2023-06-14T08:57:53;6.70;;;6.30;;
253;SDS011;590;48.772;8.846;2023-06-14T09:00:26;7.13;;;6.73;;
253;SDS011;590;48.772;8.846;2023-06-14T09:02:55;6.93;;;6.53;;
253;SDS011;590;48.772;8.846;2023-06-14T09:05:24;6.90;;;6.50;;
253;SDS011;590;48.772;8.846;2023-06-14T09:07:53;6.90;;;6.50;;
253;SDS011;590;48.772;8.846;2023-06-14T09:10:23;6.73;;;6.33;;
253;SDS011;590;48.772;8.846;2023-06-14T09:12:53;6.87;;;6.40;;
253;SDS011;590;48.772;8.846;2023-06-14T09:15:22;6.60;;;6.20;;
253;SDS011;590;48.772;8.846;2023-06-14T09:17:51;5.90;;;5.60;;
253;SDS011;590;48.772;8.846;2023-06-14T09:20:23;6.47;;;6.07;;
253;SDS011;590;48.772;8.846;2023-06-14T09:22:53;6.03;;;5.73;;
253;SDS011;590;48.772;8.846;2023-06-14T09:25:21;6.10;;;5.80;;
253;SDS011;590;48.772;8.846;2023-06-14T09:28:06;6.07;;;5.77;;
253;SDS011;590;48.772;8.846;2023-06-14T09:30:37;5.93;;;5.63;;
253;SDS011;590;48.772;8.846;2023-06-14T09:33:06;6.50;;;6.10;;
253;SDS011;590;48.772;8.846;2023-06-14T09:35:34;6.70;;;6.30;;
253;SDS011;590;48.772;8.846;2023-06-14T09:38:03;6.50;;;6.13;;
253;SDS011;590;48.772;8.846;2023-06-14T09:40:33;6.50;;;6.10;;
253;SDS011;590;48.772;8.846;2023-06-14T09:43:04;6.73;;;5.90;;
253;SDS011;590;48.772;8.846;2023-06-14T09:45:35;6.43;;;6.03;;
253;SDS011;590;48.772;8.846;2023-06-14T09:48:04;8.53;;;6.10;;
253;SDS011;590;48.772;8.846;2023-06-14T09:50:34;6.80;;;5.97;;
253;SDS011;590;48.772;8.846;2023-06-14T09:53:03;6.00;;;5.70;;
253;SDS011;590;48.772;8.846;2023-06-14T09:55:34;6.67;;;6.27;;
253;SDS011;590;48.772;8.846;2023-06-14T09:58:04;6.00;;;5.70;;
253;SDS011;590;48.772;8.846;2023-06-14T10:00:34;4.70;;;4.40;;
253;SDS011;590;48.772;8.846;2023-06-14T10:03:09;5.97;;;5.67;;
253;SDS011;590;48.772;8.846;2023-06-14T10:08:13;6.33;;;5.97;;
253;SDS011;590;48.772;8.846;2023-06-14T10:10:43;6.27;;;5.93;;
253;SDS011;590;48.772;8.846;2023-06-14T10:13:11;5.80;;;5.40;;
253;SDS011;590;48.772;8.846;2023-06-14T10:15:42;5.47;;;4.67;;
253;SDS011;590;48.772;8.846;2023-06-14T10:18:23;5.40;;;5.10;;
253;SDS011;590;48.772;8.846;2023-06-14T10:21:02;5.50;;;5.20;;
253;SDS011;590;48.772;8.846;2023-06-14T10:23:35;6.60;;;6.07;;
253;SDS011;590;48.772;8.846;2023-06-14T10:26:08;5.33;;;5.03;;
253;SDS011;590;48.772;8.846;2023-06-14T10:28:37;5.70;;;5.40;;
253;SDS011;590;48.772;8.846;2023-06-14T10:31:06;6.43;;;6.03;;
253;SDS011;590;48.772;8.846;2023-06-14T10:33:36;5.53;;;5.23;;
253;SDS011;590;48.772;8.846;2023-06-14T10:36:24;5.50;;;5.20;;
253;SDS011;590;48.772;8.846;2023-06-14T10:38:57;6.67;;;5.10;;
253;SDS011;590;48.772;8.846;2023-06-14T10:41:27;5.40;;;5.10;;
253;SDS011;590;48.772;8.846;2023-06-14T10:46:59;5.60;;;5.30;;
253;SDS011;590;48.772;8.846;2023-06-14T10:49:37;5.37;;;5.07;;
253;SDS011;590;48.772;8.846;2023-06-14T10:52:09;5.50;;;5.20;;
253;SDS011;590;48.772;8.846;2023-06-14T10:54:56;5.23;;;4.83;;
253;SDS011;590;48.772;8.846;2023-06-14T10:57:28;5.87;;;5.60;;
253;SDS011;590;48.772;8.846;2023-06-14T11:00:07;4.93;;;4.63;;
253;SDS011;590;48.772;8.846;2023-06-14T11:05:52;5.70;;;5.40;;
253;SDS011;590;48.772;8.846;2023-06-14T11:08:27;5.30;;;5.00;;
253;SDS011;590;48.772;8.846;2023-06-14T11:11:06;5.90;;;5.60;;
253;SDS011;590;48.772;8.846;2023-06-14T11:13:36;8.53;;;5.40;;
253;SDS011;590;48.772;8.846;2023-06-14T11:16:12;5.50;;;5.20;;
253;SDS011;590;48.772;8.846;2023-06-14T11:18:42;5.87;;;5.57;;
253;SDS011;590;48.772;8.846;2023-06-14T11:21:14;5.60;;;5.27;;
253;SDS011;590;48.772;8.846;2023-06-14T11:23:48;5.17;;;4.87;;
253;SDS011;590;48.772;8.846;2023-06-14T11:26:24;5.13;;;4.83;;
253;SDS011;590;48.772;8.846;2023-06-14T11:28:56;4.83;;;4.53;;
253;SDS011;590;48.772;8.846;2023-06-14T11:31:26;5.10;;;4.80;;
253;SDS011;590;48.772;8.846;2023-06-14T11:33:56;5.20;;;4.93;;
253;SDS011;590;48.772;8.846;2023-06-14T11:36:27;4.90;;;4.60;;
253;SDS011;590;48.772;8.846;2023-06-14T11:38:58;4.70;;;4.40;;
253;SDS011;590;48.772;8.846;2023-06-14T11:41:31;5.53;;;5.23;;
253;SDS011;590;48.772;8.846;2023-06-14T11:44:01;5.37;;;4.80;;
253;SDS011;590;48.772;8.846;2023-06-14T11:46:29;5.47;;;5.13;;
253;SDS011;590;48.772;8.846;2023-06-14T11:48:57;5.17;;;4.63;;
253;SDS011;590;48.772;8.846;2023-06-14T11:51:30;5.17;;;4.87;;
253;SDS011;590;48.772;8.846;2023-06-14T11:53:59;5.10;;;4.80;;
253;SDS011;590;48.772;8.846;2023-06-14T11:56:29;5.43;;;5.13;;
253;SDS011;590;48.772;8.846;2023-06-14T11:58:58;5.73;;;5.27;;
253;SDS011;590;48.772;8.846;2023-06-14T12:01:26;4.83;;;4.53;;
253;SDS011;590;48.772;8.846;2023-06-14T12:03:57;5.10;;;4.80;;
253;SDS011;590;48.772;8.846;2023-06-14T12:06:27;5.53;;;5.23;;
253;SDS011;590;48.772;8.846;2023-06-14T12:09:02;5.80;;;5.50;;
253;SDS011;590;48.772;8.846;2023-06-14T12:11:32;5.20;;;4.90;;
253;SDS011;590;48.772;8.846;2023-06-14T12:14:02;5.63;;;5.33;;
253;SDS011;590;48.772;8.846;2023-06-14T12:16:31;5.30;;;5.00;;
253;SDS011;590;48.772;8.846;2023-06-14T12:19:01;5.87;;;5.10;;
253;SDS011;590;48.772;8.846;2023-06-14T12:21:37;4.90;;;4.60;;
253;SDS011;590;48.772;8.846;2023-06-14T12:24:08;5.17;;;4.80;;
253;SDS011;590;48.772;8.846;2023-06-14T12:26:39;5.67;;;4.43;;
253;SDS011;590;48.772;8.846;2023-06-14T12:29:08;4.80;;;4.50;;
253;SDS011;590;48.772;8.846;2023-06-14T12:31:37;5.80;;;4.90;;
253;SDS011;590;48.772;8.846;2023-06-14T12:34:06;5.83;;;5.53;;
253;SDS011;590;48.772;8.846;2023-06-14T12:36:34;5.43;;;5.13;;
253;SDS011;590;48.772;8.846;2023-06-14T12:39:09;5.23;;;4.93;;
253;SDS011;590;48.772;8.846;2023-06-14T12:41:37;5.07;;;4.77;;
253;SDS011;590;48.772;8.846;2023-06-14T12:44:07;4.90;;;4.63;;
253;SDS011;590;48.772;8.846;2023-06-14T12:46:36;5.27;;;4.97;;
253;SDS011;590;48.772;8.846;2023-06-14T12:49:07;7.90;;;5.17;;
253;SDS011;590;48.772;8.846;2023-06-14T12:51:35;5.27;;;4.97;;
253;SDS011;590;48.772;8.846;2023-06-14T12:54:03;5.30;;;5.00;;
253;SDS011;590;48.772;8.846;2023-06-14T12:56:33;6.27;;;4.63;;
253;SDS011;590;48.772;8.846;2023-06-14T12:59:01;5.40;;;5.10;;
253;SDS011;590;48.772;8.846;2023-06-14T13:01:29;5.33;;;5.03;;
253;SDS011;590;48.772;8.846;2023-06-14T13:03:57;4.50;;;4.20;;
253;SDS011;590;48.772;8.846;2023-06-14T13:06:25;5.60;;;5.30;;
253;SDS011;590;48.772;8.846;2023-06-14T13:08:54;4.80;;;4.50;;
253;SDS011;590;48.772;8.846;2023-06-14T13:11:24;5.20;;;3.97;;
253;SDS011;590;48.772;8.846;2023-06-14T13:13:53;6.53;;;4.60;;
253;SDS011;590;48.772;8.846;2023-06-14T13:16:21;5.07;;;4.80;;
253;SDS011;590;48.772;8.846;2023-06-14T13:18:49;4.70;;;4.40;;
253;SDS011;590;48.772;8.846;2023-06-14T13:21:17;4.93;;;4.63;;
253;SDS011;590;48.772;8.846;2023-06-14T13:23:45;9.53;;;4.93;;
253;SDS011;590;48.772;8.846;2023-06-14T13:26:13;5.70;;;4.90;;
253;SDS011;590;48.772;8.846;2023-06-14T13:28:41;5.90;;;4.97;;
253;SDS011;590;48.772;8.846;2023-06-14T13:31:11;5.00;;;4.70;;
253;SDS011;590;48.772;8.846;2023-06-14T13:33:39;4.30;;;4.00;;
253;SDS011;590;48.772;8.846;2023-06-14T13:36:07;4.70;;;4.40;;
253;SDS011;590;48.772;8.846;2023-06-14T13:38:35;4.70;;;4.40;;
253;SDS011;590;48.772;8.846;2023-06-14T13:41:02;5.73;;;5.00;;
253;SDS011;590;48.772;8.846;2023-06-14T13:43:31;4.70;;;4.40;;
253;SDS011;590;48.772;8.846;2023-06-14T13:45:59;5.47;;;4.73;;
253;SDS011;590;48.772;8.846;2023-06-14T13:48:29;4.80;;;4.50;;
253;SDS011;590;48.772;8.846;2023-06-14T13:50:59;5.80;;;5.40;;
253;SDS011;590;48.772;8.846;2023-06-14T13:53:30;5.30;;;4.73;;
253;SDS011;590;48.772;8.846;2023-06-14T13:55:58;4.83;;;4.53;;
253;SDS011;590;48.772;8.846;2023-06-14T13:58:26;5.50;;;5.20;;
253;SDS011;590;48.772;8.846;2023-06-14T14:00:55;4.83;;;4.53;;
253;SDS011;590;48.772;8.846;2023-06-14T14:03:26;4.60;;;4.30;;
253;SDS011;590;48.772;8.846;2023-06-14T14:05:55;5.70;;;5.00;;
253;SDS011;590;48.772;8.846;2023-06-14T14:08:23;6.57;;;3.90;;
253;SDS011;590;48.772;8.846;2023-06-14T14:10:52;5.30;;;5.00;;
253;SDS011;590;48.772;8.846;2023-06-14T14:13:20;4.30;;;4.00;;
253;SDS011;590;48.772;8.846;2023-06-14T14:15:48;5.03;;;4.73;;
253;SDS011;590;48.772;8.846;2023-06-14T14:18:17;5.13;;;4.87;;
253;SDS011;590;48.772;8.846;2023-06-14T14:20:47;4.30;;;4.00;;
253;SDS011;590;48.772;8.846;2023-06-14T14:23:17;4.90;;;4.60;;
253;SDS011;590;48.772;8.846;2023-06-14T14:25:46;4.30;;;4.00;;
253;SDS011;590;48.772;8.846;2023-06-14T14:28:14;6.87;;;4.83;;
253;SDS011;590;48.772;8.846;2023-06-14T14:30:45;4.90;;;4.60;;
253;SDS011;590;48.772;8.846;2023-06-14T14:33:13;5.60;;;5.30;;
253;SDS011;590;48.772;8.846;2023-06-14T14:35:43;4.53;;;4.23;;
253;SDS011;590;48.772;8.846;2023-06-14T14:38:12;4.90;;;4.60;;
253;SDS011;590;48.772;8.846;2023-06-14T14:40:42;23.33;;;6.30;;
253;SDS011;590;48.772;8.846;2023-06-14T14:43:10;5.07;;;4.30;;
253;SDS011;590;48.772;8.846;2023-06-14T14:45:38;5.13;;;4.83;;
253;SDS011;590;48.772;8.846;2023-06-14T14:48:06;5.37;;;5.07;;
253;SDS011;590;48.772;8.846;2023-06-14T14:50:34;5.67;;;5.37;;
253;SDS011;590;48.772;8.846;2023-06-14T14:53:02;5.20;;;4.90;;
253;SDS011;590;48.772;8.846;2023-06-14T14:55:30;4.43;;;4.13;;
253;SDS011;590;48.772;8.846;2023-06-14T14:58:02;4.80;;;4.50;;
253;SDS011;590;48.772;8.846;2023-06-14T15:00:30;5.10;;;4.80;;
253;SDS011;590;48.772;8.846;2023-06-14T15:02:58;5.50;;;5.20;;
253;SDS011;590;48.772;8.846;2023-06-14T15:05:27;4.70;;;4.43;;
253;SDS011;590;48.772;8.846;2023-06-14T15:07:55;5.20;;;4.90;;
253;SDS011;590;48.772;8.846;2023-06-14T15:10:23;4.60;;;4.30;;
253;SDS011;590;48.772;8.846;2023-06-14T15:12:51;6.00;;;4.20;;
253;SDS011;590;48.772;8.846;2023-06-14T15:15:21;4.47;;;4.17;;
253;SDS011;590;48.772;8.846;2023-06-14T15:17:49;4.67;;;4.37;;
253;SDS011;590;48.772;8.846;2023-06-14T15:20:17;4.33;;;4.07;;
253;SDS011;590;48.772;8.846;2023-06-14T15:22:46;4.80;;;4.50;;
253;SDS011;590;48.772;8.846;2023-06-14T15:25:16;5.17;;;4.87;;
253;SDS011;590;48.772;8.846;2023-06-14T15:27:44;5.33;;;5.03;;
253;SDS011;590;48.772;8.846;2023-06-14T15:30:13;4.97;;;4.67;;
253;SDS011;590;48.772;8.846;2023-06-14T15:32:43;5.00;;;4.70;;
253;SDS011;590;48.772;8.846;2023-06-14T15:35:11;4.60;;;4.30;;
253;SDS011;590;48.772;8.846;2023-06-14T15:37:39;5.07;;;4.77;;
253;SDS011;590;48.772;8.846;2023-06-14T15:40:07;5.17;;;4.87;;
253;SDS011;590;48.772;8.846;2023-06-14T15:42:36;5.30;;;5.00;;
253;SDS011;590;48.772;8.846;2023-06-14T15:45:04;4.83;;;4.53;;
253;SDS011;590;48.772;8.846;2023-06-14T15:47:33;4.87;;;4.57;;
253;SDS011;590;48.772;8.846;2023-06-14T15:50:02;5.13;;;4.83;;
253;SDS011;590;48.772;8.846;2023-06-14T15:52:34;5.47;;;5.17;;
253;SDS011;590;48.772;8.846;2023-06-14T15:55:02;6.40;;;5.07;;
253;SDS011;590;48.772;8.846;2023-06-14T15:57:31;4.93;;;4.63;;
253;SDS011;590;48.772;8.846;2023-06-14T15:59:59;5.00;;;4.70;;
253;SDS011;590;48.772;8.846;2023-06-14T16:02:27;5.30;;;4.53;;
253;SDS011;590;48.772;8.846;2023-06-14T16:04:55;4.90;;;4.60;;
253;SDS011;590;48.772;8.846;2023-06-14T16:07:24;5.03;;;4.73;;
253;SDS011;590;48.772;8.846;2023-06-14T16:09:52;5.20;;;4.90;;